sensor_id;sensor_type;location;lat;lon;timestamp;pressure;altitude;pressure_sealevel;temperature;humidity
46087;BME280;31824;49.648;8.640;2023-03-21T00:01:51;100586.53;;;9.26;100.00
46087;BME280;31824;49.648;8.640;2023-03-21T00:04:53;100591.16;;;9.38;100.00
46087;BME280;31824;49.648;8.640;2023-03-21T00:07:58;100578.22;;;9.31;100.00
46087;BME280;31824;49.648;8.640;2023-03-21T00:11:05;100580.06;;;9.32;100.00
46087;BME280;31824;49.648;8.640;2023-03-21T00:14:07;100586.09;;;9.39;100.00
46087;BME280;31824;49.648;8.640;2023-03-21T00:17:10;100589.16;;;9.35;100.00
46087;BME280;31824;49.648;8.640;2023-03-21T00:20:12;100569.69;;;9.24;100.00
46087;BME280;31824;49.648;8.640;2023-03-21T00:23:15;100565.66;;;9.10;100.00
46087;BME280;31824;49.648;8.640;2023-03-21T00:26:17;100559.50;;;9.10;100.00
46087;BME280;31824;49.648;8.640;2023-03-21T00:29:19;100557.78;;;9.10;100.00
46087;BME280;31824;49.648;8.640;2023-03-21T00:32:22;100569.84;;;9.26;100.00
46087;BME280;31824;49.648;8.640;2023-03-21T00:35:24;100563.78;;;9.09;100.00
46087;BME280;31824;49.648;8.640;2023-03-21T00:38:46;100556.59;;;9.24;100.00
46087;BME280;31824;49.648;8.640;2023-03-21T00:41:48;100550.69;;;9.09;100.00
46087;BME280;31824;49.648;8.640;2023-03-21T00:44:50;100548.72;;;9.16;100.00
46087;BME280;31824;49.648;8.640;2023-03-21T00:47:53;100546.09;;;9.16;100.00
46087;BME280;31824;49.648;8.640;2023-03-21T00:50:57;100548.34;;;9.04;100.00
46087;BME280;31824;49.648;8.640;2023-03-21T00:54:02;100542.31;;;8.96;100.00
46087;BME280;31824;49.648;8.640;2023-03-21T00:57:06;100543.19;;;8.88;100.00
46087;BME280;31824;49.648;8.640;2023-03-21T01:00:09;100535.84;;;8.92;100.00
46087;BME280;31824;49.648;8.640;2023-03-21T01:03:14;100531.66;;;8.94;100.00
46087;BME280;31824;49.648;8.640;2023-03-21T01:06:25;100528.28;;;8.87;100.00
46087;BME280;31824;49.648;8.640;2023-03-21T01:09:27;100525.88;;;8.72;100.00
46087;BME280;31824;49.648;8.640;2023-03-21T01:12:31;100526.09;;;8.83;100.00
46087;BME280;31824;49.648;8.640;2023-03-21T01:15:33;100525.44;;;8.76;100.00
46087;BME280;31824;49.648;8.640;2023-03-21T01:18:38;100520.50;;;8.79;100.00
46087;BME280;31824;49.648;8.640;2023-03-21T01:21:40;100515.31;;;8.55;100.00
46087;BME280;31824;49.648;8.640;2023-03-21T01:24:41;100524.38;;;8.50;100.00
46087;BME280;31824;49.648;8.640;2023-03-21T01:27:56;100525.34;;;8.59;100.00
46087;BME280;31824;49.648;8.640;2023-03-21T01:31:00;100515.16;;;8.53;100.00
46087;BME280;31824;49.648;8.640;2023-03-21T01:34:04;100520.16;;;8.43;100.00
46087;BME280;31824;49.648;8.640;2023-03-21T01:37:06;100515.03;;;8.36;100.00
46087;BME280;31824;49.648;8.640;2023-03-21T01:40:17;100516.06;;;8.29;100.00
46087;BME280;31824;49.648;8.640;2023-03-21T01:43:29;100517.94;;;8.30;100.00
46087;BME280;31824;49.648;8.640;2023-03-21T01:46:37;100506.44;;;8.37;100.00
46087;BME280;31824;49.648;8.640;2023-03-21T01:50:31;100506.13;;;8.34;100.00
46087;BME280;31824;49.648;8.640;2023-03-21T01:53:47;100508.22;;;8.29;100.00
46087;BME280;31824;49.648;8.640;2023-03-21T01:56:50;100507.94;;;8.35;100.00
46087;BME280;31824;49.648;8.640;2023-03-21T01:59:54;100511.28;;;8.25;100.00
46087;BME280;31824;49.648;8.640;2023-03-21T02:03:05;100509.84;;;8.20;100.00
46087;BME280;31824;49.648;8.640;2023-03-21T02:06:35;100510.53;;;8.26;100.00
46087;BME280;31824;49.648;8.640;2023-03-21T02:09:48;100497.44;;;8.26;100.00
46087;BME280;31824;49.648;8.640;2023-03-21T02:12:55;100500.63;;;8.15;100.00
46087;BME280;31824;49.648;8.640;2023-03-21T02:16:00;100496.91;;;8.13;100.00
46087;BME280;31824;49.648;8.640;2023-03-21T02:19:25;100485.34;;;8.10;100.00
46087;BME280;31824;49.648;8.640;2023-03-21T02:26:27;100481.47;;;8.07;100.00
46087;BME280;31824;49.648;8.640;2023-03-21T02:30:15;100477.28;;;8.00;100.00
46087;BME280;31824;49.648;8.640;2023-03-21T02:33:59;100477.91;;;8.06;100.00
46087;BME280;31824;49.648;8.640;2023-03-21T02:37:15;100477.06;;;8.15;100.00
46087;BME280;31824;49.648;8.640;2023-03-21T02:40:31;100477.28;;;8.00;100.00
46087;BME280;31824;49.648;8.640;2023-03-21T02:43:38;100472.34;;;8.03;100.00
46087;BME280;31824;49.648;8.640;2023-03-21T02:46:45;100469.84;;;7.96;100.00
46087;BME280;31824;49.648;8.640;2023-03-21T02:50:11;100471.72;;;7.97;100.00
46087;BME280;31824;49.648;8.640;2023-03-21T02:53:19;100469.31;;;8.07;100.00
46087;BME280;31824;49.648;8.640;2023-03-21T02:56:24;100468.66;;;8.01;100.00
46087;BME280;31824;49.648;8.640;2023-03-21T02:59:30;100477.81;;;7.89;100.00
46087;BME280;31824;49.648;8.640;2023-03-21T03:02:39;100471.28;;;7.76;100.00
46087;BME280;31824;49.648;8.640;2023-03-21T03:05:45;100468.47;;;7.75;100.00
46087;BME280;31824;49.648;8.640;2023-03-21T03:09:04;100471.66;;;7.72;100.00
46087;BME280;31824;49.648;8.640;2023-03-21T03:12:18;100466.72;;;7.67;100.00
46087;BME280;31824;49.648;8.640;2023-03-21T03:15:30;100458.94;;;7.75;100.00
46087;BME280;31824;49.648;8.640;2023-03-21T03:18:40;100455.66;;;7.69;100.00
46087;BME280;31824;49.648;8.640;2023-03-21T03:21:50;100452.25;;;7.62;100.00
46087;BME280;31824;49.648;8.640;2023-03-21T03:25:02;100455.25;;;7.57;100.00
46087;BME280;31824;49.648;8.640;2023-03-21T03:28:27;100465.53;;;7.56;100.00
46087;BME280;31824;49.648;8.640;2023-03-21T03:31:33;100454.19;;;7.39;100.00
46087;BME280;31824;49.648;8.640;2023-03-21T03:34:41;100458.06;;;7.43;100.00
46087;BME280;31824;49.648;8.640;2023-03-21T03:37:47;100450.41;;;7.44;100.00
46087;BME280;31824;49.648;8.640;2023-03-21T03:40:54;100460.09;;;7.46;100.00
46087;BME280;31824;49.648;8.640;2023-03-21T03:44:27;100451.41;;;7.54;100.00
46087;BME280;31824;49.648;8.640;2023-03-21T03:47:37;100453.34;;;7.48;100.00
46087;BME280;31824;49.648;8.640;2023-03-21T03:51:00;100448.91;;;7.47;100.00
46087;BME280;31824;49.648;8.640;2023-03-21T03:54:26;100451.41;;;7.54;100.00
46087;BME280;31824;49.648;8.640;2023-03-21T03:57:33;100457.50;;;7.46;100.00
46087;BME280;31824;49.648;8.640;2023-03-21T04:00:36;100457.16;;;7.42;100.00
46087;BME280;31824;49.648;8.640;2023-03-21T04:03:40;100456.06;;;7.40;100.00
46087;BME280;31824;49.648;8.640;2023-03-21T04:06:52;100458.66;;;7.40;100.00
46087;BME280;31824;49.648;8.640;2023-03-21T04:09:56;100460.44;;;7.49;100.00
46087;BME280;31824;49.648;8.640;2023-03-21T04:13:00;100454.00;;;7.54;100.00
46087;BME280;31824;49.648;8.640;2023-03-21T04:16:20;100451.09;;;7.75;100.00
46087;BME280;31824;49.648;8.640;2023-03-21T04:19:25;100442.16;;;7.73;100.00
46087;BME280;31824;49.648;8.640;2023-03-21T04:22:27;100442.66;;;7.78;100.00
46087;BME280;31824;49.648;8.640;2023-03-21T04:25:29;100436.03;;;8.06;100.00
46087;BME280;31824;49.648;8.640;2023-03-21T04:28:39;100445.56;;;7.97;100.00
46087;BME280;31824;49.648;8.640;2023-03-21T04:31:54;100443.53;;;7.94;100.00
46087;BME280;31824;49.648;8.640;2023-03-21T04:34:56;100439.38;;;7.97;100.00
46087;BME280;31824;49.648;8.640;2023-03-21T04:37:58;100443.53;;;7.94;100.00
46087;BME280;31824;49.648;8.640;2023-03-21T04:41:00;100437.16;;;7.84;100.00
46087;BME280;31824;49.648;8.640;2023-03-21T04:44:05;100451.00;;;7.83;100.00
46087;BME280;31824;49.648;8.640;2023-03-21T04:47:08;100442.16;;;7.73;100.00
46087;BME280;31824;49.648;8.640;2023-03-21T04:50:11;100441.50;;;7.67;100.00
46087;BME280;31824;49.648;8.640;2023-03-21T04:53:14;100438.16;;;7.52;100.00
46087;BME280;31824;49.648;8.640;2023-03-21T04:56:16;100433.84;;;7.53;100.00
46087;BME280;31824;49.648;8.640;2023-03-21T04:59:19;100444.25;;;7.44;100.00
46087;BME280;31824;49.648;8.640;2023-03-21T05:02:21;100441.97;;;7.31;100.00
46087;BME280;31824;49.648;8.640;2023-03-21T05:05:24;100440.75;;;7.28;100.00
46087;BME280;31824;49.648;8.640;2023-03-21T05:08:27;100440.13;;;7.30;100.00
46087;BME280;31824;49.648;8.640;2023-03-21T05:11:29;100440.81;;;7.36;100.00
46087;BME280;31824;49.648;8.640;2023-03-21T05:14:33;100442.56;;;7.44;100.00
46087;BME280;31824;49.648;8.640;2023-03-21T05:17:35;100433.38;;;7.48;100.00
46087;BME280;31824;49.648;8.640;2023-03-21T05:20:37;100433.22;;;7.47;100.00
46087;BME280;31824;49.648;8.640;2023-03-21T05:23:43;100420.91;;;7.46;100.00
46087;BME280;31824;49.648;8.640;2023-03-21T05:26:46;100426.34;;;7.56;100.00
46087;BME280;31824;49.648;8.640;2023-03-21T05:29:54;100428.16;;;7.73;100.00
46087;BME280;31824;49.648;8.640;2023-03-21T05:32:56;100433.50;;;7.66;100.00
46087;BME280;31824;49.648;8.640;2023-03-21T05:35:58;100433.63;;;7.42;100.00
46087;BME280;31824;49.648;8.640;2023-03-21T05:39:04;100426.28;;;7.31;100.00
46087;BME280;31824;49.648;8.640;2023-03-21T05:42:09;100421.06;;;7.31;100.00
46087;BME280;31824;49.648;8.640;2023-03-21T05:45:13;100428.00;;;7.15;100.00
46087;BME280;31824;49.648;8.640;2023-03-21T05:48:16;100412.66;;;7.18;100.00
46087;BME280;31824;49.648;8.640;2023-03-21T05:51:42;100418.97;;;7.20;100.00
46087;BME280;31824;49.648;8.640;2023-03-21T05:54:46;100417.97;;;7.26;100.00
46087;BME280;31824;49.648;8.640;2023-03-21T05:57:49;100420.16;;;7.31;100.00
46087;BME280;31824;49.648;8.640;2023-03-21T06:00:57;100417.44;;;7.38;100.00
46087;BME280;31824;49.648;8.640;2023-03-21T06:04:05;100433.06;;;7.29;100.00
46087;BME280;31824;49.648;8.640;2023-03-21T06:07:09;100435.84;;;7.31;100.00
46087;BME280;31824;49.648;8.640;2023-03-21T06:10:13;100437.59;;;7.23;100.00
46087;BME280;31824;49.648;8.640;2023-03-21T06:13:19;100431.53;;;7.15;100.00
46087;BME280;31824;49.648;8.640;2023-03-21T06:16:22;100430.78;;;7.16;100.00
46087;BME280;31824;49.648;8.640;2023-03-21T06:19:24;100433.22;;;7.15;100.00
46087;BME280;31824;49.648;8.640;2023-03-21T06:22:41;100431.94;;;7.43;100.00
46087;BME280;31824;49.648;8.640;2023-03-21T06:25:44;100435.78;;;7.63;100.00
46087;BME280;31824;49.648;8.640;2023-03-21T06:28:46;100441.78;;;7.62;100.00
46087;BME280;31824;49.648;8.640;2023-03-21T06:31:49;100439.66;;;7.91;100.00
46087;BME280;31824;49.648;8.640;2023-03-21T06:34:51;100437.81;;;8.15;100.00
46087;BME280;31824;49.648;8.640;2023-03-21T06:37:53;100445.13;;;8.35;100.00
46087;BME280;31824;49.648;8.640;2023-03-21T06:40:55;100435.97;;;8.47;100.00
46087;BME280;31824;49.648;8.640;2023-03-21T06:43:59;100439.16;;;8.69;100.00
46087;BME280;31824;49.648;8.640;2023-03-21T06:47:06;100443.19;;;8.92;100.00
46087;BME280;31824;49.648;8.640;2023-03-21T06:50:09;100440.94;;;9.21;100.00
46087;BME280;31824;49.648;8.640;2023-03-21T06:53:15;100452.06;;;9.36;100.00
46087;BME280;31824;49.648;8.640;2023-03-21T06:56:36;100442.50;;;9.45;100.00
46087;BME280;31824;49.648;8.640;2023-03-21T06:59:38;100446.19;;;9.48;100.00
46087;BME280;31824;49.648;8.640;2023-03-21T07:02:58;100440.47;;;9.60;100.00
46087;BME280;31824;49.648;8.640;2023-03-21T07:06:04;100441.81;;;9.83;100.00
46087;BME280;31824;49.648;8.640;2023-03-21T07:09:07;100445.03;;;9.98;100.00
46087;BME280;31824;49.648;8.640;2023-03-21T07:12:09;100441.81;;;10.01;100.00
46087;BME280;31824;49.648;8.640;2023-03-21T07:15:36;100444.09;;;10.15;100.00
46087;BME280;31824;49.648;8.640;2023-03-21T07:18:43;100444.06;;;10.24;100.00
46087;BME280;31824;49.648;8.640;2023-03-21T07:21:46;100448.22;;;10.39;100.00
46087;BME280;31824;49.648;8.640;2023-03-21T07:24:47;100441.81;;;10.55;100.00
46087;BME280;31824;49.648;8.640;2023-03-21T07:28:06;100439.09;;;10.72;100.00
46087;BME280;31824;49.648;8.640;2023-03-21T07:31:13;100438.84;;;10.60;100.00
46087;BME280;31824;49.648;8.640;2023-03-21T07:34:17;100438.13;;;10.80;100.00
46087;BME280;31824;49.648;8.640;2023-03-21T07:37:19;100442.81;;;10.74;100.00
46087;BME280;31824;49.648;8.640;2023-03-21T07:40:21;100443.13;;;10.69;100.00
46087;BME280;31824;49.648;8.640;2023-03-21T07:43:23;100432.88;;;10.80;100.00
46087;BME280;31824;49.648;8.640;2023-03-21T07:46:26;100437.66;;;10.85;100.00
46087;BME280;31824;49.648;8.640;2023-03-21T07:49:30;100435.91;;;10.94;100.00
46087;BME280;31824;49.648;8.640;2023-03-21T07:52:32;100438.78;;;11.06;100.00
46087;BME280;31824;49.648;8.640;2023-03-21T07:55:37;100443.72;;;11.03;100.00
46087;BME280;31824;49.648;8.640;2023-03-21T07:58:40;100448.19;;;11.04;100.00
46087;BME280;31824;49.648;8.640;2023-03-21T08:01:42;100440.13;;;11.30;100.00
46087;BME280;31824;49.648;8.640;2023-03-21T08:04:45;100445.19;;;11.37;100.00
46087;BME280;31824;49.648;8.640;2023-03-21T08:07:47;100445.59;;;11.42;100.00
46087;BME280;31824;49.648;8.640;2023-03-21T08:10:49;100447.03;;;11.76;100.00
46087;BME280;31824;49.648;8.640;2023-03-21T08:13:51;100449.69;;;11.87;100.00
46087;BME280;31824;49.648;8.640;2023-03-21T08:16:53;100446.66;;;12.01;100.00
46087;BME280;31824;49.648;8.640;2023-03-21T08:19:56;100447.94;;;11.96;100.00
46087;BME280;31824;49.648;8.640;2023-03-21T08:22:58;100448.72;;;11.76;100.00
46087;BME280;31824;49.648;8.640;2023-03-21T08:25:59;100449.28;;;11.82;100.00
46087;BME280;31824;49.648;8.640;2023-03-21T08:29:03;100441.28;;;11.91;100.00
46087;BME280;31824;49.648;8.640;2023-03-21T08:32:05;100437.69;;;11.99;100.00
46087;BME280;31824;49.648;8.640;2023-03-21T08:35:11;100443.00;;;12.09;100.00
46087;BME280;31824;49.648;8.640;2023-03-21T08:38:13;100436.28;;;12.13;100.00
46087;BME280;31824;49.648;8.640;2023-03-21T08:41:15;100431.59;;;12.19;100.00
46087;BME280;31824;49.648;8.640;2023-03-21T08:44:17;100444.06;;;12.11;100.00
46087;BME280;31824;49.648;8.640;2023-03-21T08:47:18;100433.56;;;12.22;100.00
46087;BME280;31824;49.648;8.640;2023-03-21T08:50:23;100439.75;;;12.22;100.00
46087;BME280;31824;49.648;8.640;2023-03-21T08:53:28;100441.53;;;12.42;100.00
46087;BME280;31824;49.648;8.640;2023-03-21T08:56:30;100434.91;;;12.27;100.00
46087;BME280;31824;49.648;8.640;2023-03-21T08:59:32;100443.38;;;12.43;100.00
46087;BME280;31824;49.648;8.640;2023-03-21T09:02:33;100445.66;;;12.49;100.00
46087;BME280;31824;49.648;8.640;2023-03-21T09:05:37;100437.19;;;12.43;100.00
46087;BME280;31824;49.648;8.640;2023-03-21T09:08:39;100440.63;;;12.52;100.00
46087;BME280;31824;49.648;8.640;2023-03-21T09:11:42;100426.84;;;12.65;100.00
46087;BME280;31824;49.648;8.640;2023-03-21T09:14:44;100433.00;;;12.45;100.00
46087;BME280;31824;49.648;8.640;2023-03-21T09:17:46;100428.16;;;12.60;100.00
46087;BME280;31824;49.648;8.640;2023-03-21T09:20:54;100436.19;;;12.61;100.00
46087;BME280;31824;49.648;8.640;2023-03-21T09:23:57;100426.84;;;12.65;100.00
46087;BME280;31824;49.648;8.640;2023-03-21T09:27:00;100438.94;;;12.53;100.00
46087;BME280;31824;49.648;8.640;2023-03-21T09:30:03;100428.41;;;12.53;100.00
46087;BME280;31824;49.648;8.640;2023-03-21T09:33:06;100439.03;;;12.44;100.00
46087;BME280;31824;49.648;8.640;2023-03-21T09:36:11;100431.78;;;12.41;100.00
46087;BME280;31824;49.648;8.640;2023-03-21T09:39:16;100434.47;;;12.62;100.00
46087;BME280;31824;49.648;8.640;2023-03-21T09:42:29;100435.00;;;12.68;100.00
46087;BME280;31824;49.648;8.640;2023-03-21T09:45:39;100429.91;;;12.80;100.00
46087;BME280;31824;49.648;8.640;2023-03-21T09:48:48;100433.97;;;12.97;100.00
46087;BME280;31824;49.648;8.640;2023-03-21T09:52:01;100435.03;;;12.78;100.00
46087;BME280;31824;49.648;8.640;2023-03-21T09:55:15;100436.75;;;12.98;100.00
46087;BME280;31824;49.648;8.640;2023-03-21T09:58:24;100432.13;;;13.27;100.00
46087;BME280;31824;49.648;8.640;2023-03-21T10:01:28;100437.94;;;13.23;100.00
46087;BME280;31824;49.648;8.640;2023-03-21T10:04:34;100434.78;;;13.27;100.00
46087;BME280;31824;49.648;8.640;2023-03-21T10:07:42;100433.06;;;13.27;100.00
46087;BME280;31824;49.648;8.640;2023-03-21T10:10:50;100434.13;;;13.50;100.00
46087;BME280;31824;49.648;8.640;2023-03-21T10:13:53;100432.13;;;13.58;100.00
46087;BME280;31824;49.648;8.640;2023-03-21T10:16:58;100425.03;;;13.36;100.00
46087;BME280;31824;49.648;8.640;2023-03-21T10:20:10;100432.97;;;13.36;100.00
46087;BME280;31824;49.648;8.640;2023-03-21T10:23:18;100433.34;;;13.30;100.00
46087;BME280;31824;49.648;8.640;2023-03-21T10:26:23;100430.69;;;13.41;100.00
46087;BME280;31824;49.648;8.640;2023-03-21T10:29:30;100421.19;;;13.32;100.00
46087;BME280;31824;49.648;8.640;2023-03-21T10:32:33;100422.66;;;13.39;100.00
46087;BME280;31824;49.648;8.640;2023-03-21T10:35:37;100421.88;;;13.20;100.00
46087;BME280;31824;49.648;8.640;2023-03-21T10:38:43;100419.22;;;13.40;100.00
46087;BME280;31824;49.648;8.640;2023-03-21T10:41:46;100418.44;;;13.41;100.00
46087;BME280;31824;49.648;8.640;2023-03-21T10:44:50;100415.81;;;13.21;100.00
46087;BME280;31824;49.648;8.640;2023-03-21T10:47:52;100410.63;;;13.32;100.00
46087;BME280;31824;49.648;8.640;2023-03-21T10:50:55;100408.94;;;13.33;100.00
46087;BME280;31824;49.648;8.640;2023-03-21T10:54:02;100407.09;;;13.42;100.00
46087;BME280;31824;49.648;8.640;2023-03-21T10:57:07;100407.06;;;13.32;100.00
46087;BME280;31824;49.648;8.640;2023-03-21T11:00:17;100405.88;;;13.49;100.00
46087;BME280;31824;49.648;8.640;2023-03-21T11:03:23;100400.22;;;13.13;100.00
46087;BME280;31824;49.648;8.640;2023-03-21T11:06:28;100397.06;;;13.17;100.00
46087;BME280;31824;49.648;8.640;2023-03-21T11:09:44;100402.75;;;13.22;100.00
46087;BME280;31824;49.648;8.640;2023-03-21T11:12:47;100415.25;;;13.14;100.00
46087;BME280;31824;49.648;8.640;2023-03-21T11:15:52;100410.78;;;12.93;100.00
46087;BME280;31824;49.648;8.640;2023-03-21T11:18:58;100409.06;;;12.83;100.00
46087;BME280;31824;49.648;8.640;2023-03-21T11:22:05;100408.56;;;12.97;100.00
46087;BME280;31824;49.648;8.640;2023-03-21T11:25:19;100408.66;;;12.89;100.00
46087;BME280;31824;49.648;8.640;2023-03-21T11:28:25;100408.53;;;12.87;100.00
46087;BME280;31824;49.648;8.640;2023-03-21T11:31:36;100406.56;;;13.05;100.00
46087;BME280;31824;49.648;8.640;2023-03-21T11:34:44;100394.28;;;13.16;100.00
46087;BME280;31824;49.648;8.640;2023-03-21T11:37:51;100390.34;;;13.00;100.00
46087;BME280;31824;49.648;8.640;2023-03-21T11:40:58;100401.66;;;13.20;100.00
46087;BME280;31824;49.648;8.640;2023-03-21T11:44:01;100394.19;;;13.04;100.00
46087;BME280;31824;49.648;8.640;2023-03-21T11:47:03;100390.47;;;12.92;100.00
46087;BME280;31824;49.648;8.640;2023-03-21T11:50:25;100388.63;;;12.80;100.00
46087;BME280;31824;49.648;8.640;2023-03-21T11:53:33;100381.75;;;12.62;100.00
46087;BME280;31824;49.648;8.640;2023-03-21T11:56:43;100377.56;;;12.74;100.00
46087;BME280;31824;49.648;8.640;2023-03-21T11:59:53;100373.22;;;12.75;100.00
46087;BME280;31824;49.648;8.640;2023-03-21T12:03:27;100373.31;;;12.97;100.00
46087;BME280;31824;49.648;8.640;2023-03-21T12:06:52;100363.31;;;12.72;100.00
46087;BME280;31824;49.648;8.640;2023-03-21T12:10:09;100358.81;;;12.92;100.00
46087;BME280;31824;49.648;8.640;2023-03-21T12:13:26;100348.97;;;12.89;100.00
46087;BME280;31824;49.648;8.640;2023-03-21T12:16:45;100345.59;;;13.43;100.00
46087;BME280;31824;49.648;8.640;2023-03-21T12:20:13;100345.47;;;13.11;100.00
46087;BME280;31824;49.648;8.640;2023-03-21T12:23:33;100335.50;;;13.60;100.00
46087;BME280;31824;49.648;8.640;2023-03-21T12:26:42;100331.19;;;13.82;100.00
46087;BME280;31824;49.648;8.640;2023-03-21T12:30:09;100328.53;;;13.93;100.00
46087;BME280;31824;49.648;8.640;2023-03-21T12:33:35;100322.69;;;13.97;100.00
46087;BME280;31824;49.648;8.640;2023-03-21T12:36:53;100322.72;;;13.87;100.00
46087;BME280;31824;49.648;8.640;2023-03-21T12:40:07;100320.97;;;13.65;100.00
46087;BME280;31824;49.648;8.640;2023-03-21T12:43:23;100312.84;;;13.84;100.00
46087;BME280;31824;49.648;8.640;2023-03-21T12:46:32;100314.00;;;14.32;100.00
46087;BME280;31824;49.648;8.640;2023-03-21T12:49:40;100314.25;;;14.13;100.00
46087;BME280;31824;49.648;8.640;2023-03-21T12:52:46;100300.25;;;13.92;100.00
46087;BME280;31824;49.648;8.640;2023-03-21T12:55:54;100297.50;;;13.90;100.00
46087;BME280;31824;49.648;8.640;2023-03-21T12:59:03;100291.84;;;14.08;100.00
46087;BME280;31824;49.648;8.640;2023-03-21T13:02:23;100298.84;;;13.85;100.00
46087;BME280;31824;49.648;8.640;2023-03-21T13:05:29;100289.16;;;13.96;100.00
46087;BME280;31824;49.648;8.640;2023-03-21T13:08:35;100293.63;;;13.97;100.00
46087;BME280;31824;49.648;8.640;2023-03-21T13:11:38;100285.88;;;13.88;100.00
46087;BME280;31824;49.648;8.640;2023-03-21T13:14:46;100272.16;;;13.60;100.00
46087;BME280;31824;49.648;8.640;2023-03-21T13:17:58;100269.47;;;13.70;100.00
46087;BME280;31824;49.648;8.640;2023-03-21T13:21:06;100273.84;;;13.70;100.00
46087;BME280;31824;49.648;8.640;2023-03-21T13:24:27;100267.06;;;13.51;100.00
46087;BME280;31824;49.648;8.640;2023-03-21T13:27:30;100260.34;;;13.44;100.00
46087;BME280;31824;49.648;8.640;2023-03-21T13:30:33;100253.00;;;13.40;100.00
46087;BME280;31824;49.648;8.640;2023-03-21T13:33:38;100246.91;;;13.31;100.00
46087;BME280;31824;49.648;8.640;2023-03-21T13:36:47;100254.59;;;13.28;100.00
46087;BME280;31824;49.648;8.640;2023-03-21T13:39:52;100262.13;;;13.23;100.00
46087;BME280;31824;49.648;8.640;2023-03-21T13:43:00;100249.22;;;13.16;100.00
46087;BME280;31824;49.648;8.640;2023-03-21T13:46:07;100253.03;;;13.09;100.00
46087;BME280;31824;49.648;8.640;2023-03-21T13:49:24;100252.84;;;12.86;100.00
46087;BME280;31824;49.648;8.640;2023-03-21T13:52:27;100250.66;;;12.59;100.00
46087;BME280;31824;49.648;8.640;2023-03-21T13:55:30;100247.88;;;12.58;100.00
46087;BME280;31824;49.648;8.640;2023-03-21T13:58:38;100248.00;;;12.49;100.00
46087;BME280;31824;49.648;8.640;2023-03-21T14:01:57;100239.19;;;12.38;100.00
46087;BME280;31824;49.648;8.640;2023-03-21T14:05:04;100236.94;;;12.43;100.00
46087;BME280;31824;49.648;8.640;2023-03-21T14:08:09;100245.00;;;12.34;100.00
46087;BME280;31824;49.648;8.640;2023-03-21T14:11:26;100244.59;;;12.29;100.00
46087;BME280;31824;49.648;8.640;2023-03-21T14:14:33;100241.69;;;12.16;100.00
46087;BME280;31824;49.648;8.640;2023-03-21T14:17:36;100224.41;;;11.99;100.00
46087;BME280;31824;49.648;8.640;2023-03-21T14:20:40;100229.63;;;11.78;100.00
46087;BME280;31824;49.648;8.640;2023-03-21T14:23:43;100228.63;;;11.47;100.00
46087;BME280;31824;49.648;8.640;2023-03-21T14:26:46;100226.13;;;11.48;100.00
46087;BME280;31824;49.648;8.640;2023-03-21T14:29:49;100240.22;;;11.30;100.00
46087;BME280;31824;49.648;8.640;2023-03-21T14:32:55;100239.78;;;11.15;100.00
46087;BME280;31824;49.648;8.640;2023-03-21T14:36:03;100233.78;;;10.97;100.00
46087;BME280;31824;49.648;8.640;2023-03-21T14:39:12;100245.78;;;11.04;100.00
46087;BME280;31824;49.648;8.640;2023-03-21T14:42:16;100227.81;;;11.08;100.00
46087;BME280;31824;49.648;8.640;2023-03-21T14:45:19;100219.72;;;11.26;100.00
46087;BME280;31824;49.648;8.640;2023-03-21T14:48:28;100224.47;;;11.01;100.00
46087;BME280;31824;49.648;8.640;2023-03-21T14:51:31;100229.00;;;11.12;100.00
46087;BME280;31824;49.648;8.640;2023-03-21T14:54:33;100224.31;;;11.18;100.00
46087;BME280;31824;49.648;8.640;2023-03-21T14:57:37;100215.25;;;11.25;100.00
46087;BME280;31824;49.648;8.640;2023-03-21T15:00:39;100219.25;;;11.40;100.00
46087;BME280;31824;49.648;8.640;2023-03-21T15:03:43;100196.66;;;11.13;100.00
46087;BME280;31824;49.648;8.640;2023-03-21T15:06:52;100173.06;;;11.34;100.00
46087;BME280;31824;49.648;8.640;2023-03-21T15:09:56;100143.44;;;11.26;100.00
46087;BME280;31824;49.648;8.640;2023-03-21T15:13:00;100121.88;;;11.30;100.00
46087;BME280;31824;49.648;8.640;2023-03-21T15:16:04;100149.22;;;11.11;100.00
46087;BME280;31824;49.648;8.640;2023-03-21T15:19:09;100172.34;;;11.15;100.00
46087;BME280;31824;49.648;8.640;2023-03-21T15:22:29;100179.28;;;11.44;100.00
46087;BME280;31824;49.648;8.640;2023-03-21T15:25:33;100184.50;;;11.34;100.00
46087;BME280;31824;49.648;8.640;2023-03-21T15:28:36;100197.53;;;11.03;100.00
46087;BME280;31824;49.648;8.640;2023-03-21T15:31:38;100196.16;;;11.17;100.00
46087;BME280;31824;49.648;8.640;2023-03-21T15:34:43;100195.56;;;11.01;100.00
46087;BME280;31824;49.648;8.640;2023-03-21T15:37:53;100199.03;;;11.10;100.00
46087;BME280;31824;49.648;8.640;2023-03-21T15:41:23;100187.81;;;11.02;100.00
46087;BME280;31824;49.648;8.640;2023-03-21T15:44:27;100177.63;;;11.15;100.00
46087;BME280;31824;49.648;8.640;2023-03-21T15:47:50;100165.06;;;11.03;100.00
46087;BME280;31824;49.648;8.640;2023-03-21T15:50:57;100167.56;;;11.01;100.00
46087;BME280;31824;49.648;8.640;2023-03-21T15:54:02;100173.06;;;11.04;100.00
46087;BME280;31824;49.648;8.640;2023-03-21T15:57:05;100176.19;;;10.90;100.00
46087;BME280;31824;49.648;8.640;2023-03-21T16:00:24;100165.66;;;10.90;100.00
46087;BME280;31824;49.648;8.640;2023-03-21T16:03:30;100151.06;;;10.83;100.00
46087;BME280;31824;49.648;8.640;2023-03-21T16:06:35;100139.38;;;10.90;100.00
46087;BME280;31824;49.648;8.640;2023-03-21T16:09:41;100115.88;;;10.91;100.00
46087;BME280;31824;49.648;8.640;2023-03-21T16:12:45;100107.88;;;11.00;100.00
46087;BME280;31824;49.648;8.640;2023-03-21T16:15:47;100109.97;;;11.04;100.00
46087;BME280;31824;49.648;8.640;2023-03-21T16:18:50;100125.03;;;11.26;100.00